Time,TemperatureF,DewpointF,PressureIn,WindDirection,WindDirectionDegrees,WindSpeedMPH,WindSpeedGustMPH,Humidity,HourlyPrecipIn,Conditions,Clouds,dailyrainin,SoftwareType,DateUTC
2013-02-09 00:00:00,28.2,27.0,29.71,North,359,0.0,0.0,95,0.00,RA,,0.00,WeatherDisplay:10.37,2013-02-09 05:00:00,
2013-02-09 00:02:00,28.2,27.0,29.71,NNW,336,0.0,0.0,95,0.00,RA,,0.00,WeatherDisplay:10.37,2013-02-09 05:02:00,
2013-02-09 00:07:00,28.4,27.2,29.71,North,0,0.0,0.0,95,0.00,RA,,0.00,WeatherDisplay:10.37,2013-02-09 05:07:00,
2013-02-09 00:12:00,28.4,27.2,29.71,NNW,340,0.0,0.0,95,0.00,CLR,,0.00,WeatherDisplay:10.37,2013-02-09 05:12:00,
2013-02-09 00:17:00,28.4,27.2,29.71,North,7,0.0,0.0,95,0.00,CLR,,0.00,WeatherDisplay:10.37,2013-02-09 05:17:00,
2013-02-09 00:22:00,28.5,27.3,29.71,North,359,0.0,0.0,95,0.00,CLR,,0.00,WeatherDisplay:10.37,2013-02-09 05:22:00,
2013-02-09 00:28:00,28.5,27.3,29.71,NW,304,0.0,0.0,95,0.00,CLR,,0.00,WeatherDisplay:10.37,2013-02-09 05:28:00,
2013-02-09 00:33:00,28.5,27.3,29.71,NW,304,0.0,0.0,95,0.00,CLR,,0.00,WeatherDisplay:10.37,2013-02-09 05:33:00,
2013-02-09 00:38:00,28.5,27.3,29.71,NW,304,0.0,0.0,95,0.00,CLR,,0.00,WeatherDisplay:10.37,2013-02-09 05:38:00,
2013-02-09 00:43:00,28.5,27.3,29.71,NW,304,0.0,0.0,95,0.00,CLR,,0.00,WeatherDisplay:10.37,2013-02-09 05:43:00,
2013-02-09 00:48:00,28.5,27.3,29.71,NW,313,0.0,0.0,95,0.00,CLR,,0.00,WeatherDisplay:10.37,2013-02-09 05:48:00,
2013-02-09 00:53:00,28.7,27.4,29.71,NW,312,0.0,0.0,95,0.00,CLR,,0.00,WeatherDisplay:10.37,2013-02-09 05:53:00,
2013-02-09 00:58:00,28.7,27.4,29.72,NW,309,0.0,0.0,95,0.00,CLR,,0.00,WeatherDisplay:10.37,2013-02-09 05:58:00,
2013-02-09 01:03:00,28.8,27.5,29.72,NNW,347,0.0,0.0,95,0.00,CLR,,0.00,WeatherDisplay:10.37,2013-02-09 06:03:00,
2013-02-09 01:08:00,28.8,27.5,29.72,WNW,298,0.0,0.0,95,0.00,CLR,,0.00,WeatherDisplay:10.37,2013-02-09 06:08:00,
2013-02-09 01:13:00,28.8,27.5,29.73,NNW,329,0.0,0.0,95,0.00,CLR,,0.00,WeatherDisplay:10.37,2013-02-09 06:13:00,
2013-02-09 01:18:00,29.0,27.7,29.73,NW,316,0.0,0.0,95,0.00,CLR,,0.00,WeatherDisplay:10.37,2013-02-09 06:18:00,
2013-02-09 01:23:00,29.0,27.7,29.73,NW,312,0.0,0.0,95,0.00,CLR,,0.00,WeatherDisplay:10.37,2013-02-09 06:23:00,
2013-02-09 01:28:00,29.0,27.7,29.73,NW,319,0.0,0.0,95,0.00,CLR,,0.00,WeatherDisplay:10.37,2013-02-09 06:28:00,
2013-02-09 01:33:00,29.1,27.8,29.73,NNW,339,0.0,0.0,95,0.00,CLR,,0.00,WeatherDisplay:10.37,2013-02-09 06:33:00,
2013-02-09 01:38:00,29.1,27.8,29.73,NW,322,0.0,0.0,95,0.00,CLR,,0.00,WeatherDisplay:10.37,2013-02-09 06:38:00,
2013-02-09 01:44:00,29.1,27.8,29.73,North,0,0.0,0.0,95,0.00,CLR,,0.00,WeatherDisplay:10.37,2013-02-09 06:44:00,
2013-02-09 01:49:00,29.1,27.8,29.74,WNW,292,0.0,0.0,95,0.00,CLR,,0.00,WeatherDisplay:10.37,2013-02-09 06:49:00,
2013-02-09 01:54:00,29.1,27.8,29.74,North,0,0.0,0.0,95,0.00,CLR,,0.00,WeatherDisplay:10.37,2013-02-09 06:54:00,
2013-02-09 01:59:00,29.1,27.8,29.74,NNW,332,4.7,6.9,95,0.00,CLR,,0.00,WeatherDisplay:10.37,2013-02-09 06:59:00,
2013-02-09 02:04:00,29.1,27.8,29.74,NNW,333,2.9,6.0,95,0.00,CLR,,0.00,WeatherDisplay:10.37,2013-02-09 07:04:00,
2013-02-09 02:09:00,29.1,27.8,29.74,WNW,298,0.0,0.0,95,0.00,CLR,,0.00,WeatherDisplay:10.37,2013-02-09 07:09:00,
2013-02-09 02:14:00,29.1,27.8,29.74,North,0,0.0,0.0,95,0.00,CLR,,0.00,WeatherDisplay:10.37,2013-02-09 07:14:00,
2013-02-09 02:19:00,29.1,27.8,29.75,NE,47,0.2,1.2,95,0.00,CLR,,0.00,WeatherDisplay:10.37,2013-02-09 07:19:00,
2013-02-09 02:24:00,29.1,27.8,29.75,North,0,0.1,1.2,95,0.00,CLR,,0.00,WeatherDisplay:10.37,2013-02-09 07:24:00,
2013-02-09 02:29:00,29.1,27.8,29.75,North,8,0.0,1.2,95,0.00,CLR,,0.00,WeatherDisplay:10.37,2013-02-09 07:29:00,
2013-02-09 02:34:00,29.1,27.8,29.76,WNW,298,0.0,0.0,95,0.00,CLR,,0.00,WeatherDisplay:10.37,2013-02-09 07:34:00,
2013-02-09 02:39:00,29.1,27.8,29.76,WNW,296,0.0,0.0,95,0.00,CLR,,0.00,WeatherDisplay:10.37,2013-02-09 07:39:00,
2013-02-09 02:44:00,29.1,27.8,29.76,NW,323,0.2,3.5,95,0.00,CLR,,0.00,WeatherDisplay:10.37,2013-02-09 07:44:00,
2013-02-09 02:49:00,29.0,27.7,29.76,WNW,291,5.7,9.2,95,0.00,CLR,,0.00,WeatherDisplay:10.37,2013-02-09 07:49:00,
2013-02-09 02:54:00,28.4,26.9,29.76,NNW,329,5.6,8.0,94,0.00,CLR,,0.00,WeatherDisplay:10.37,2013-02-09 07:54:00,
2013-02-09 02:59:00,27.9,26.4,29.76,NW,306,4.9,8.1,94,0.00,CLR,,0.00,WeatherDisplay:10.37,2013-02-09 07:59:00,
2013-02-09 03:04:00,27.5,26.0,29.76,NW,308,5.8,9.2,94,0.00,CLR,,0.00,WeatherDisplay:10.37,2013-02-09 08:04:00,
2013-02-09 03:09:00,27.2,25.7,29.77,NW,315,2.6,8.1,94,0.00,CLR,,0.00,WeatherDisplay:10.37,2013-02-09 08:09:00,
2013-02-09 03:14:00,26.7,25.2,29.78,NNW,344,4.9,8.1,94,0.00,CLR,,0.00,WeatherDisplay:10.37,2013-02-09 08:14:00,
2013-02-09 03:19:00,26.4,24.7,29.78,NNW,339,2.3,5.8,93,0.00,CLR,,0.00,WeatherDisplay:10.37,2013-02-09 08:19:00,
2013-02-09 03:24:00,26.1,24.4,29.78,NW,306,2.6,4.6,93,0.00,CLR,,0.00,WeatherDisplay:10.37,2013-02-09 08:24:00,
2013-02-09 03:29:00,26.0,24.3,29.78,NNW,329,2.5,4.6,93,0.00,CLR,,0.00,WeatherDisplay:10.37,2013-02-09 08:29:00,
2013-02-09 03:34:00,25.8,24.1,29.79,West,265,4.2,11.5,93,0.00,CLR,,0.00,WeatherDisplay:10.37,2013-02-09 08:34:00,
2013-02-09 03:39:00,25.4,23.7,29.79,West,261,2.3,10.4,93,0.00,CLR,,0.00,WeatherDisplay:10.37,2013-02-09 08:39:00,
2013-02-09 03:44:00,25.3,23.6,29.79,North,0,4.7,6.9,93,0.00,CLR,,0.00,WeatherDisplay:10.37,2013-02-09 08:44:00,
2013-02-09 03:50:00,24.8,23.1,29.79,NNW,337,3.7,8.1,93,0.00,CLR,,0.00,WeatherDisplay:10.37,2013-02-09 08:50:00,
2013-02-09 03:55:00,24.5,22.8,29.79,NNW,337,6.7,8.0,93,0.00,CLR,,0.00,WeatherDisplay:10.37,2013-02-09 08:55:00,
2013-02-09 04:00:00,24.4,22.4,29.80,NW,320,4.2,6.9,92,0.00,CLR,,0.00,WeatherDisplay:10.37,2013-02-09 09:00:00,
2013-02-09 04:05:00,24.2,22.2,29.80,NW,305,4.9,8.0,92,0.00,CLR,,0.00,WeatherDisplay:10.37,2013-02-09 09:05:00,
2013-02-09 04:10:00,24.1,22.1,29.81,NW,325,6.2,12.0,92,0.00,CLR,,0.00,WeatherDisplay:10.37,2013-02-09 09:10:00,
2013-02-09 04:16:00,24.1,22.1,29.81,WNW,294,2.7,3.5,92,0.00,CLR,,0.00,WeatherDisplay:10.37,2013-02-09 09:16:00,
2013-02-09 04:21:00,23.9,21.9,29.81,WNW,296,4.0,10.0,92,0.00,CLR,,0.00,WeatherDisplay:10.37,2013-02-09 09:21:00,
2013-02-09 04:26:00,23.8,21.8,29.81,NNW,335,6.4,11.5,92,0.00,CLR,,0.00,WeatherDisplay:10.37,2013-02-09 09:26:00,
2013-02-09 04:31:00,23.8,21.8,29.81,SW,233,5.2,11.5,92,0.00,CLR,,0.00,WeatherDisplay:10.37,2013-02-09 09:31:00,
2013-02-09 04:36:00,23.6,21.6,29.81,WNW,289,4.0,5.8,92,0.00,CLR,,0.00,WeatherDisplay:10.37,2013-02-09 09:36:00,
2013-02-09 04:41:00,23.6,21.4,29.81,NNW,332,3.5,8.1,91,0.00,CLR,,0.00,WeatherDisplay:10.37,2013-02-09 09:41:00,
2013-02-09 04:46:00,23.6,21.4,29.82,North,353,8.2,17.3,91,0.00,CLR,,0.00,WeatherDisplay:10.37,2013-02-09 09:46:00,
2013-02-09 04:52:00,23.6,21.4,29.82,NNW,343,6.7,11.5,91,0.00,CLR,,0.00,WeatherDisplay:10.37,2013-02-09 09:52:00,
2013-02-09 04:57:00,23.6,21.4,29.83,WNW,288,4.3,6.9,91,0.00,CLR,,0.00,WeatherDisplay:10.37,2013-02-09 09:57:00,
2013-02-09 05:02:00,23.5,21.3,29.83,WNW,302,2.1,7.0,91,0.00,CLR,,0.00,WeatherDisplay:10.37,2013-02-09 10:02:00,
2013-02-09 05:07:00,23.5,21.3,29.83,WNW,282,5.4,10.0,91,0.00,CLR,,0.00,WeatherDisplay:10.37,2013-02-09 10:07:00,
2013-02-09 05:12:00,23.5,21.0,29.83,WNW,291,6.6,8.0,90,0.00,CLR,,0.00,WeatherDisplay:10.37,2013-02-09 10:12:00,
2013-02-09 05:18:00,23.3,20.8,29.83,NNW,335,3.8,6.0,90,0.00,CLR,,0.00,WeatherDisplay:10.37,2013-02-09 10:18:00,
2013-02-09 05:23:00,23.3,20.8,29.83,NNW,336,4.7,6.9,90,0.00,CLR,,0.00,WeatherDisplay:10.37,2013-02-09 10:23:00,
2013-02-09 05:28:00,23.3,20.5,29.83,North,357,8.0,11.5,89,0.00,CLR,,0.00,WeatherDisplay:10.37,2013-02-09 10:28:00,
2013-02-09 05:33:00,23.2,20.4,29.84,North,353,7.4,8.1,89,0.00,CLR,,0.00,WeatherDisplay:10.37,2013-02-09 10:33:00,
2013-02-09 05:38:00,23.2,20.4,29.84,NW,306,5.2,8.1,89,0.00,CLR,,0.00,WeatherDisplay:10.37,2013-02-09 10:38:00,
2013-02-09 05:44:00,23.0,20.0,29.84,NNW,342,6.7,11.5,88,0.00,CLR,,0.00,WeatherDisplay:10.37,2013-02-09 10:44:00,
2013-02-09 05:49:00,23.0,20.0,29.84,NW,312,6.8,13.8,88,0.00,CLR,,0.00,WeatherDisplay:10.37,2013-02-09 10:49:00,
2013-02-09 05:54:00,23.0,20.0,29.84,NNW,339,8.4,18.4,88,0.00,CLR,,0.00,WeatherDisplay:10.37,2013-02-09 10:54:00,
2013-02-09 05:59:00,23.0,20.0,29.85,NW,312,4.7,8.1,88,0.00,CLR,,0.00,WeatherDisplay:10.37,2013-02-09 10:59:00,
2013-02-09 06:04:00,23.0,20.0,29.86,North,359,8.6,12.7,88,0.00,CLR,,0.00,WeatherDisplay:10.37,2013-02-09 11:04:00,
2013-02-09 06:09:00,22.9,19.6,29.85,NW,304,7.7,11.5,87,0.00,CLR,,0.00,WeatherDisplay:10.37,2013-02-09 11:09:00,
2013-02-09 06:15:00,22.7,19.4,29.86,NW,304,3.7,10.4,87,0.00,CLR,,0.00,WeatherDisplay:10.37,2013-02-09 11:15:00,
2013-02-09 06:20:00,22.7,19.4,29.86,North,350,6.5,8.1,87,0.00,CLR,,0.00,WeatherDisplay:10.37,2013-02-09 11:20:00,
2013-02-09 06:25:00,22.5,19.2,29.87,NW,312,5.8,10.0,87,0.00,CLR,,0.00,WeatherDisplay:10.37,2013-02-09 11:25:00,
2013-02-09 06:30:00,22.4,18.8,29.88,NW,312,6.0,8.1,86,0.00,CLR,,0.00,WeatherDisplay:10.37,2013-02-09 11:30:00,
2013-02-09 06:35:00,22.2,18.7,29.88,NNW,333,5.8,11.5,86,0.00,CLR,,0.00,WeatherDisplay:10.37,2013-02-09 11:35:00,
2013-02-09 06:41:00,22.2,18.7,29.89,West,272,3.6,5.8,86,0.00,CLR,,0.00,WeatherDisplay:10.37,2013-02-09 11:41:00,
2013-02-09 06:46:00,22.1,18.3,29.89,North,0,7.8,11.5,85,0.00,CLR,,0.00,WeatherDisplay:10.37,2013-02-09 11:46:00,
2013-02-09 06:51:00,22.1,18.0,29.89,WNW,296,7.9,10.0,84,0.00,CLR,,0.00,WeatherDisplay:10.37,2013-02-09 11:51:00,
2013-02-09 06:56:00,22.1,18.0,29.89,NW,323,7.6,11.5,84,0.00,CLR,,0.00,WeatherDisplay:10.37,2013-02-09 11:56:00,
2013-02-09 07:01:00,21.9,17.5,29.89,NW,318,7.5,11.5,83,0.00,CLR,,0.00,WeatherDisplay:10.37,2013-02-09 12:01:00,
2013-02-09 07:06:00,21.8,17.4,29.89,North,350,9.1,18.4,83,0.00,CLR,,0.00,WeatherDisplay:10.37,2013-02-09 12:06:00,
2013-02-09 07:12:00,21.6,17.2,29.90,NNW,346,7.7,11.0,83,0.00,CLR,,0.00,WeatherDisplay:10.37,2013-02-09 12:12:00,
2013-02-09 07:17:00,21.4,16.8,29.90,NNW,329,9.4,12.7,82,0.00,CLR,,0.00,WeatherDisplay:10.37,2013-02-09 12:17:00,
2013-02-09 07:22:00,21.4,16.5,29.91,North,359,8.8,12.7,81,0.00,CLR,,0.00,WeatherDisplay:10.37,2013-02-09 12:22:00,
2013-02-09 07:27:00,21.4,16.5,29.91,NNW,347,9.8,12.7,81,0.00,CLR,,0.00,WeatherDisplay:10.37,2013-02-09 12:27:00,
2013-02-09 07:32:00,21.4,16.2,29.91,NNW,340,7.9,13.0,80,0.00,CLR,,0.00,WeatherDisplay:10.37,2013-02-09 12:32:00,
2013-02-09 07:37:00,21.4,15.9,29.92,NNW,339,9.8,12.7,79,0.00,CLR,,0.00,WeatherDisplay:10.37,2013-02-09 12:37:00,
2013-02-09 07:42:00,21.4,16.2,29.92,NNW,332,8.3,11.5,80,0.00,CLR,,0.00,WeatherDisplay:10.37,2013-02-09 12:42:00,
2013-02-09 07:47:00,21.4,15.9,29.92,NW,312,5.7,11.5,79,0.00,CLR,,0.00,WeatherDisplay:10.37,2013-02-09 12:47:00,
2013-02-09 07:53:00,21.6,16.1,29.92,NNW,346,8.5,13.0,79,0.00,CLR,,0.00,WeatherDisplay:10.37,2013-02-09 12:53:00,
2013-02-09 07:58:00,21.6,15.5,29.92,NW,308,10.3,13.8,77,0.00,CLR,,0.00,WeatherDisplay:10.37,2013-02-09 12:58:00,
2013-02-09 08:03:00,21.8,16.0,29.92,North,0,8.6,13.8,78,0.00,CLR,,0.00,WeatherDisplay:10.37,2013-02-09 13:03:00,
2013-02-09 08:08:00,21.6,15.5,29.92,North,352,11.7,12.7,77,0.00,CLR,,0.00,WeatherDisplay:10.37,2013-02-09 13:08:00,
2013-02-09 08:13:00,21.6,15.5,29.93,NNW,344,8.6,11.5,77,0.00,CLR,,0.00,WeatherDisplay:10.37,2013-02-09 13:13:00,
2013-02-09 08:19:00,21.6,15.8,29.93,NW,322,9.1,13.8,78,0.00,CLR,,0.00,WeatherDisplay:10.37,2013-02-09 13:19:00,
2013-02-09 08:24:00,21.6,15.5,29.93,NW,305,8.5,16.1,77,0.00,CLR,,0.00,WeatherDisplay:10.37,2013-02-09 13:24:00,
2013-02-09 08:29:00,21.8,15.7,29.94,North,359,7.3,12.7,77,0.00,CLR,,0.00,WeatherDisplay:10.37,2013-02-09 13:29:00,
2013-02-09 08:34:00,21.9,15.8,29.94,WNW,301,9.5,11.5,77,0.00,CLR,,0.00,WeatherDisplay:10.37,2013-02-09 13:34:00,
2013-02-09 08:40:00,22.1,15.4,29.93,NW,311,9.9,20.7,75,0.00,CLR,,0.00,WeatherDisplay:10.37,2013-02-09 13:40:00,
2013-02-09 08:45:00,22.1,15.4,29.93,North,0,11.8,19.6,75,0.00,CLR,,0.00,WeatherDisplay:10.37,2013-02-09 13:45:00,
2013-02-09 08:50:00,22.1,15.7,29.94,North,352,12.2,19.6,76,0.00,CLR,,0.00,WeatherDisplay:10.37,2013-02-09 13:50:00,
2013-02-09 08:55:00,22.1,15.1,29.93,NNW,340,9.6,17.3,74,0.00,CLR,,0.00,WeatherDisplay:10.37,2013-02-09 13:55:00,
2013-02-09 09:00:00,22.2,15.8,29.93,NNW,346,7.1,11.5,76,0.00,CLR,,0.00,WeatherDisplay:10.37,2013-02-09 14:00:00,
2013-02-09 09:05:00,22.5,15.1,29.93,NW,326,10.8,16.1,73,0.00,CLR,,0.00,WeatherDisplay:10.37,2013-02-09 14:05:00,
2013-02-09 09:10:00,22.9,15.8,29.93,West,263,8.6,14.0,74,0.00,CLR,,0.00,WeatherDisplay:10.37,2013-02-09 14:10:00,
2013-02-09 09:15:00,23.0,15.6,29.94,NNW,336,10.6,16.1,73,0.00,CLR,,0.00,WeatherDisplay:10.37,2013-02-09 14:15:00,
2013-02-09 09:20:00,23.6,15.9,29.94,NW,309,9.5,14.0,72,0.00,CLR,,0.00,WeatherDisplay:10.37,2013-02-09 14:20:00,
2013-02-09 09:25:00,23.5,16.4,29.94,NNW,328,6.0,14.0,74,0.00,CLR,,0.00,WeatherDisplay:10.37,2013-02-09 14:25:00,
2013-02-09 09:30:00,23.6,16.5,29.95,NNW,346,5.4,11.5,74,0.00,CLR,,0.00,WeatherDisplay:10.37,2013-02-09 14:30:00,
2013-02-09 09:35:00,23.3,15.6,29.96,WNW,299,8.1,17.3,72,0.00,CLR,,0.00,WeatherDisplay:10.37,2013-02-09 14:35:00,
2013-02-09 09:40:00,22.9,15.5,29.97,NNW,337,8.0,8.1,73,0.00,CLR,,0.00,WeatherDisplay:10.37,2013-02-09 14:40:00,
2013-02-09 09:46:00,22.5,14.2,29.97,North,0,13.0,16.1,70,0.00,CLR,,0.00,WeatherDisplay:10.37,2013-02-09 14:46:00,
2013-02-09 09:51:00,22.4,14.1,29.97,NNW,333,13.8,18.4,70,0.00,CLR,,0.00,WeatherDisplay:10.37,2013-02-09 14:51:00,
2013-02-09 09:56:00,22.4,14.1,29.97,North,354,11.7,19.6,70,0.00,CLR,,0.00,WeatherDisplay:10.37,2013-02-09 14:56:00,
2013-02-09 10:01:00,22.7,14.1,29.98,NNW,337,9.3,16.1,69,0.00,CLR,,0.00,WeatherDisplay:10.37,2013-02-09 15:01:00,
2013-02-09 10:06:00,22.9,14.2,29.99,North,354,14.2,18.4,69,0.00,CLR,,0.00,WeatherDisplay:10.37,2013-02-09 15:06:00,
2013-02-09 10:11:00,22.9,13.9,29.99,WNW,302,13.4,18.4,68,0.00,CLR,,0.00,WeatherDisplay:10.37,2013-02-09 15:11:00,
2013-02-09 10:16:00,22.7,13.7,29.99,NNW,346,14.2,19.6,68,0.00,CLR,,0.00,WeatherDisplay:10.37,2013-02-09 15:16:00,
2013-02-09 10:21:00,22.9,14.2,29.99,NW,316,10.5,15.0,69,0.00,CLR,,0.00,WeatherDisplay:10.37,2013-02-09 15:21:00,
2013-02-09 10:26:00,23.2,14.2,30.00,North,356,8.2,17.3,68,0.00,CLR,,0.00,WeatherDisplay:10.37,2013-02-09 15:26:00,
2013-02-09 10:31:00,23.5,13.5,30.00,NW,312,12.1,16.1,65,0.00,CLR,,0.00,WeatherDisplay:10.37,2013-02-09 15:31:00,
2013-02-09 10:36:00,23.8,14.8,30.00,NNW,340,7.3,9.2,68,0.00,CLR,,0.00,WeatherDisplay:10.37,2013-02-09 15:36:00,
2013-02-09 10:42:00,23.8,14.4,30.00,NNW,340,8.6,19.6,67,0.00,CLR,,0.00,WeatherDisplay:10.37,2013-02-09 15:42:00,
2013-02-09 10:47:00,23.6,13.5,30.00,North,350,11.5,16.1,65,0.00,CLR,,0.00,WeatherDisplay:10.37,2013-02-09 15:47:00,
2013-02-09 10:52:00,23.9,13.5,30.00,NNW,342,12.4,12.7,64,0.00,CLR,,0.00,WeatherDisplay:10.37,2013-02-09 15:52:00,
2013-02-09 10:57:00,23.9,14.5,30.00,North,354,9.1,11.5,67,0.00,CLR,,0.00,WeatherDisplay:10.37,2013-02-09 15:57:00,
2013-02-09 11:02:00,24.1,14.0,30.00,NNW,336,10.6,11.5,65,0.00,CLR,,0.00,WeatherDisplay:10.37,2013-02-09 16:02:00,
2013-02-09 11:08:00,24.1,13.7,30.00,North,353,11.6,18.4,64,0.00,CLR,,0.00,WeatherDisplay:10.37,2013-02-09 16:08:00,
2013-02-09 11:13:00,24.1,14.4,30.00,NW,305,12.5,25.3,66,0.00,CLR,,0.00,WeatherDisplay:10.37,2013-02-09 16:13:00,
2013-02-09 11:18:00,24.2,14.5,30.01,WNW,299,11.7,18.4,66,0.00,CLR,,0.00,WeatherDisplay:10.37,2013-02-09 16:18:00,
2013-02-09 11:23:00,24.2,13.4,30.01,NNW,343,15.3,19.6,63,0.00,CLR,,0.00,WeatherDisplay:10.37,2013-02-09 16:23:00,
2013-02-09 11:28:00,24.1,13.7,30.01,North,357,12.5,17.3,64,0.00,CLR,,0.00,WeatherDisplay:10.37,2013-02-09 16:28:00,
2013-02-09 11:33:00,24.4,14.3,30.01,North,0,9.2,11.5,65,0.00,CLR,,0.00,WeatherDisplay:10.37,2013-02-09 16:33:00,
2013-02-09 11:39:00,24.5,14.1,30.01,NW,308,10.2,13.8,64,0.00,CLR,,0.00,WeatherDisplay:10.37,2013-02-09 16:39:00,
2013-02-09 11:44:00,25.0,14.2,30.00,NW,323,12.3,20.7,63,0.00,CLR,,0.00,WeatherDisplay:10.37,2013-02-09 16:44:00,
2013-02-09 11:49:00,24.8,14.3,30.00,North,350,9.3,13.8,64,0.00,CLR,,0.00,WeatherDisplay:10.37,2013-02-09 16:49:00,
2013-02-09 11:54:00,25.4,14.9,30.00,North,349,9.3,11.5,64,0.82,RA,,0.93,WeatherDisplay:10.37,2013-02-09 16:54:00,
2013-02-09 11:59:00,25.4,14.2,30.01,North,349,13.7,17.3,62,2.01,RA,,2.13,WeatherDisplay:10.37,2013-02-09 16:59:00,
2013-02-09 12:04:00,25.6,14.0,30.00,North,353,12.4,19.6,61,3.20,RA,,3.32,WeatherDisplay:10.37,2013-02-09 17:04:00,
2013-02-09 12:09:00,25.6,14.0,30.00,NNW,342,10.1,11.5,61,4.39,RA,,4.51,WeatherDisplay:10.37,2013-02-09 17:09:00,
2013-02-09 12:15:00,25.6,13.2,30.00,North,354,15.2,19.6,59,5.82,RA,,5.82,WeatherDisplay:10.37,2013-02-09 17:15:00,
2013-02-09 12:20:00,25.6,14.0,30.00,NW,325,15.8,21.9,61,7.01,RA,,7.13,WeatherDisplay:10.37,2013-02-09 17:20:00,
2013-02-09 12:25:00,25.6,14.0,30.00,NNW,344,12.7,21.9,61,8.20,RA,,8.32,WeatherDisplay:10.37,2013-02-09 17:25:00,
2013-02-09 12:30:00,26.0,13.2,30.00,NW,322,15.0,25.3,58,9.39,RA,,9.51,WeatherDisplay:10.37,2013-02-09 17:30:00,
2013-02-09 12:35:00,26.1,14.1,30.00,NW,309,13.5,19.6,60,10.58,RA,,10.82,WeatherDisplay:10.37,2013-02-09 17:35:00,
2013-02-09 12:41:00,25.8,13.8,30.00,North,353,19.0,20.7,60,12.01,RA,,12.01,WeatherDisplay:10.37,2013-02-09 17:41:00,
2013-02-09 12:46:00,25.6,13.2,30.01,North,0,13.0,19.6,59,13.20,RA,,13.32,WeatherDisplay:10.37,2013-02-09 17:46:00,
2013-02-09 12:51:00,26.1,13.3,30.01,NW,325,10.0,13.8,58,14.29,RA,,14.51,WeatherDisplay:10.37,2013-02-09 17:51:00,
2013-02-09 12:56:00,26.7,13.5,30.01,NNW,329,10.0,16.1,57,14.29,RA,,15.70,WeatherDisplay:10.37,2013-02-09 17:56:00,
2013-02-09 13:01:00,26.9,13.7,30.02,North,352,8.1,17.3,57,14.29,RA,,17.01,WeatherDisplay:10.37,2013-02-09 18:01:00,
2013-02-09 13:07:00,26.7,12.7,30.02,NNW,347,13.3,18.4,55,14.29,RA,,18.20,WeatherDisplay:10.37,2013-02-09 18:07:00,
2013-02-09 13:12:00,27.2,12.7,30.02,West,264,14.8,19.6,54,14.29,RA,,19.39,WeatherDisplay:10.37,2013-02-09 18:12:00,
2013-02-09 13:17:00,27.2,11.9,30.01,North,0,14.5,18.4,52,14.29,RA,,20.70,WeatherDisplay:10.37,2013-02-09 18:17:00,
2013-02-09 13:22:00,27.3,12.4,30.02,North,354,11.6,13.8,53,14.29,RA,,21.89,WeatherDisplay:10.37,2013-02-09 18:22:00,
2013-02-09 13:27:00,27.6,12.2,30.02,NNW,340,15.3,18.4,52,14.29,RA,,23.08,WeatherDisplay:10.37,2013-02-09 18:27:00,
2013-02-09 13:32:00,27.6,12.7,30.02,NNW,346,13.4,25.3,53,14.29,RA,,24.27,WeatherDisplay:10.37,2013-02-09 18:32:00,
2013-02-09 13:37:00,27.9,11.6,30.02,North,350,10.4,16.1,50,14.29,RA,,25.58,WeatherDisplay:10.37,2013-02-09 18:37:00,
2013-02-09 13:43:00,28.2,11.5,30.02,North,353,14.1,17.3,49,14.29,RA,,26.77,WeatherDisplay:10.37,2013-02-09 18:43:00,
2013-02-09 13:48:00,28.1,11.4,30.02,North,0,18.7,25.3,49,14.29,RA,,28.08,WeatherDisplay:10.37,2013-02-09 18:48:00,
2013-02-09 13:53:00,28.1,11.8,30.03,North,354,15.1,21.9,50,14.29,RA,,29.27,WeatherDisplay:10.37,2013-02-09 18:53:00,
2013-02-09 13:58:00,28.5,10.8,30.03,NNW,337,12.3,19.6,47,14.28,RA,,30.46,WeatherDisplay:10.37,2013-02-09 18:58:00,
2013-02-09 14:03:00,28.8,11.1,30.03,NNW,328,12.2,16.1,47,14.28,RA,,31.65,WeatherDisplay:10.37,2013-02-09 19:03:00,
2013-02-09 14:08:00,29.1,11.8,30.03,NNW,340,12.8,17.3,48,14.28,RA,,32.96,WeatherDisplay:10.37,2013-02-09 19:08:00,
2013-02-09 14:14:00,29.0,10.8,30.03,North,353,16.0,24.2,46,14.28,RA,,34.15,WeatherDisplay:10.37,2013-02-09 19:14:00,
2013-02-09 14:19:00,29.1,12.3,30.03,NNW,328,9.2,11.5,49,14.28,RA,,35.34,WeatherDisplay:10.37,2013-02-09 19:19:00,
2013-02-09 14:24:00,29.1,11.4,30.03,North,352,9.3,18.4,47,14.28,RA,,36.65,WeatherDisplay:10.37,2013-02-09 19:24:00,
2013-02-09 14:29:00,29.1,11.8,30.03,North,0,9.7,19.6,48,14.28,RA,,37.84,WeatherDisplay:10.37,2013-02-09 19:29:00,
2013-02-09 14:34:00,29.1,10.9,30.03,NNW,346,8.9,18.4,46,14.29,RA,,39.03,WeatherDisplay:10.37,2013-02-09 19:34:00,
2013-02-09 14:40:00,29.1,11.8,30.04,NNW,342,10.5,16.1,48,13.66,RA,,39.72,WeatherDisplay:10.37,2013-02-09 19:40:00,
2013-02-09 14:45:00,29.0,10.3,30.04,NNW,328,11.9,19.6,45,12.47,RA,,39.72,WeatherDisplay:10.37,2013-02-09 19:45:00,
2013-02-09 14:50:00,28.8,10.6,30.05,North,0,10.4,18.4,46,11.28,CLR,,39.72,WeatherDisplay:10.37,2013-02-09 19:50:00,
2013-02-09 14:55:00,29.0,10.3,30.05,North,349,11.6,18.0,45,10.09,CLR,,39.72,WeatherDisplay:10.37,2013-02-09 19:55:00,
2013-02-09 15:00:00,28.8,8.6,30.05,North,356,18.5,20.7,42,8.90,CLR,,39.72,WeatherDisplay:10.37,2013-02-09 20:00:00,
2013-02-09 15:05:00,29.0,9.3,30.06,North,1,11.3,18.4,43,7.71,CLR,,39.72,WeatherDisplay:10.37,2013-02-09 20:05:00,
2013-02-09 15:10:00,29.3,10.6,30.06,WNW,301,6.7,9.2,45,6.52,CLR,,39.72,WeatherDisplay:10.37,2013-02-09 20:10:00,
2013-02-09 15:15:00,29.3,11.1,30.06,NNW,337,10.6,13.8,46,5.33,CLR,,39.72,WeatherDisplay:10.37,2013-02-09 20:15:00,
2013-02-09 15:20:00,29.3,11.1,30.07,NW,323,7.6,11.5,46,4.14,CLR,,39.72,WeatherDisplay:10.37,2013-02-09 20:20:00,
2013-02-09 15:26:00,29.1,9.9,30.07,NW,304,9.2,11.5,44,2.71,CLR,,39.72,WeatherDisplay:10.37,2013-02-09 20:26:00,
2013-02-09 15:31:00,28.8,9.1,30.08,NNW,335,12.5,19.6,43,1.52,CLR,,39.72,WeatherDisplay:10.37,2013-02-09 20:31:00,
2013-02-09 15:36:00,28.7,9.0,30.07,NNW,342,9.3,18.4,43,0.33,CLR,,39.72,WeatherDisplay:10.37,2013-02-09 20:36:00,
2013-02-09 15:42:00,28.5,7.8,30.07,North,352,13.3,19.6,41,0.00,CLR,,39.72,WeatherDisplay:10.37,2013-02-09 20:42:00,
2013-02-09 15:47:00,28.5,8.8,30.08,North,353,13.3,25.3,43,0.00,CLR,,39.72,WeatherDisplay:10.37,2013-02-09 20:47:00,
2013-02-09 15:52:00,28.7,9.0,30.08,North,354,11.1,24.2,43,0.00,CLR,,39.72,WeatherDisplay:10.37,2013-02-09 20:52:00,
2013-02-09 15:57:00,28.7,7.9,30.08,North,353,16.0,20.7,41,0.00,CLR,,39.72,WeatherDisplay:10.37,2013-02-09 20:57:00,
2013-02-09 16:02:00,28.4,8.2,30.08,NNW,342,14.7,19.6,42,0.00,CLR,,39.72,WeatherDisplay:10.37,2013-02-09 21:02:00,
2013-02-09 16:08:00,28.2,9.0,30.09,NW,322,7.3,10.4,44,0.00,CLR,,39.72,WeatherDisplay:10.37,2013-02-09 21:08:00,
2013-02-09 16:13:00,28.2,9.0,30.09,NW,306,8.5,11.5,44,0.00,CLR,,39.72,WeatherDisplay:10.37,2013-02-09 21:13:00,
2013-02-09 16:18:00,28.1,9.0,30.09,NNW,329,12.0,18.4,44,0.00,CLR,,39.72,WeatherDisplay:10.37,2013-02-09 21:18:00,
2013-02-09 16:23:00,28.1,7.4,30.09,NNW,343,11.7,18.0,41,0.00,CLR,,39.72,WeatherDisplay:10.37,2013-02-09 21:23:00,
2013-02-09 16:28:00,27.9,6.7,30.10,North,350,9.6,13.8,40,0.00,CLR,,39.72,WeatherDisplay:10.37,2013-02-09 21:28:00,
2013-02-09 16:33:00,27.8,6.6,30.10,North,353,10.5,18.4,40,0.00,CLR,,39.72,WeatherDisplay:10.37,2013-02-09 21:33:00,
2013-02-09 16:38:00,27.6,7.5,30.10,NNW,346,11.5,12.7,42,0.00,CLR,,39.72,WeatherDisplay:10.37,2013-02-09 21:38:00,
2013-02-09 16:43:00,27.8,8.2,30.11,WNW,295,6.4,11.5,43,0.00,CLR,,39.72,WeatherDisplay:10.37,2013-02-09 21:43:00,
2013-02-09 16:48:00,27.5,8.4,30.11,WNW,288,8.5,16.1,44,0.00,CLR,,39.72,WeatherDisplay:10.37,2013-02-09 21:48:00,
2013-02-09 16:53:00,27.3,9.2,30.11,NNW,340,10.3,10.3,46,0.00,CLR,,39.72,WeatherDisplay:10.37,2013-02-09 21:53:00,
2013-02-09 16:59:00,27.0,8.0,30.11,North,353,9.9,24.2,44,0.00,CLR,,39.72,WeatherDisplay:10.37,2013-02-09 21:59:00,
2013-02-09 17:04:00,26.9,7.9,30.11,NNW,329,7.6,12.7,44,0.00,CLR,,39.72,WeatherDisplay:10.37,2013-02-09 22:04:00,
2013-02-09 17:09:00,26.6,8.6,30.11,North,354,14.7,17.3,46,0.00,CLR,,39.72,WeatherDisplay:10.37,2013-02-09 22:09:00,
2013-02-09 17:14:00,26.4,7.9,30.12,North,0,12.0,18.4,45,0.00,CLR,,39.72,WeatherDisplay:10.37,2013-02-09 22:14:00,
2013-02-09 17:19:00,26.1,8.1,30.12,NW,316,8.3,14.0,46,0.00,CLR,,39.72,WeatherDisplay:10.37,2013-02-09 22:19:00,
2013-02-09 17:24:00,25.8,8.3,30.13,WNW,295,5.2,8.1,47,0.00,CLR,,39.72,WeatherDisplay:10.37,2013-02-09 22:24:00,
2013-02-09 17:29:00,25.6,8.1,30.13,NW,323,9.3,19.6,47,0.00,CLR,,39.72,WeatherDisplay:10.37,2013-02-09 22:29:00,
2013-02-09 17:34:00,25.4,8.4,30.13,NNW,336,1.7,8.1,48,0.00,CLR,,39.72,WeatherDisplay:10.37,2013-02-09 22:34:00,
2013-02-09 17:40:00,25.1,8.6,30.13,North,0,8.0,14.0,49,0.00,CLR,,39.72,WeatherDisplay:10.37,2013-02-09 22:40:00,
2013-02-09 17:45:00,25.0,8.5,30.14,North,354,7.3,13.8,49,0.00,CLR,,39.72,WeatherDisplay:10.37,2013-02-09 22:45:00,
2013-02-09 17:50:00,24.7,8.2,30.14,West,265,9.7,11.5,49,0.00,CLR,,39.72,WeatherDisplay:10.37,2013-02-09 22:50:00,
2013-02-09 17:55:00,24.7,8.2,30.14,WNW,295,6.0,13.8,49,0.00,CLR,,39.72,WeatherDisplay:10.37,2013-02-09 22:55:00,
2013-02-09 18:00:00,24.4,8.4,30.15,NW,319,9.1,12.7,50,0.00,CLR,,39.72,WeatherDisplay:10.37,2013-02-09 23:00:00,
2013-02-09 18:05:00,24.2,8.2,30.15,NW,319,9.9,13.0,50,0.00,CLR,,39.72,WeatherDisplay:10.37,2013-02-09 23:05:00,
2013-02-09 18:11:00,24.2,7.8,30.16,North,0,7.2,17.0,49,0.00,CLR,,39.72,WeatherDisplay:10.37,2013-02-09 23:11:00,
2013-02-09 18:16:00,24.1,8.1,30.16,North,3,8.7,10.4,50,0.00,CLR,,39.72,WeatherDisplay:10.37,2013-02-09 23:16:00,
2013-02-09 18:21:00,23.8,7.4,30.16,NNW,337,7.6,11.5,49,0.00,CLR,,39.72,WeatherDisplay:10.37,2013-02-09 23:21:00,
2013-02-09 18:26:00,23.8,7.4,30.17,North,0,10.2,12.7,49,0.00,CLR,,39.72,WeatherDisplay:10.37,2013-02-09 23:26:00,
2013-02-09 18:31:00,23.6,7.7,30.17,NNW,339,6.6,13.8,50,0.00,CLR,,39.72,WeatherDisplay:10.37,2013-02-09 23:31:00,
2013-02-09 18:36:00,23.5,7.1,30.17,NW,311,8.5,15.0,49,0.00,CLR,,39.72,WeatherDisplay:10.37,2013-02-09 23:36:00,
2013-02-09 18:41:00,23.3,7.4,30.17,WNW,285,4.8,11.5,50,0.00,CLR,,39.72,WeatherDisplay:10.37,2013-02-09 23:41:00,
2013-02-09 18:46:00,23.2,6.8,30.18,North,0,6.6,10.4,49,0.00,CLR,,39.72,WeatherDisplay:10.37,2013-02-09 23:46:00,
2013-02-09 18:52:00,23.0,7.1,30.18,NNW,346,5.7,10.4,50,0.00,CLR,,39.72,WeatherDisplay:10.37,2013-02-09 23:52:00,
2013-02-09 18:57:00,22.9,6.6,30.18,West,281,6.0,8.1,49,0.00,CLR,,39.72,WeatherDisplay:10.37,2013-02-09 23:57:00,
2013-02-09 19:02:00,22.7,6.8,30.18,NNW,343,6.0,12.7,50,0.00,CLR,,39.72,WeatherDisplay:10.37,2013-02-10 00:02:00,
2013-02-09 19:07:00,22.5,6.6,30.19,NNW,347,5.7,10.4,50,0.00,CLR,,39.72,WeatherDisplay:10.37,2013-02-10 00:07:00,
2013-02-09 19:12:00,22.2,6.8,30.18,NNW,330,2.2,9.2,51,0.00,CLR,,39.72,WeatherDisplay:10.37,2013-02-10 00:12:00,
2013-02-09 19:17:00,21.9,6.5,30.20,North,353,5.2,13.8,51,0.00,CLR,,39.72,WeatherDisplay:10.37,2013-02-10 00:17:00,
2013-02-09 19:23:00,21.9,6.5,30.20,North,0,0.8,7.0,51,0.00,CLR,,39.72,WeatherDisplay:10.37,2013-02-10 00:23:00,
2013-02-09 19:28:00,22.1,6.3,30.20,NNW,329,7.0,10.4,50,0.00,CLR,,39.72,WeatherDisplay:10.37,2013-02-10 00:28:00,
2013-02-09 19:33:00,21.9,6.1,30.20,North,349,5.0,11.5,50,0.00,CLR,,39.72,WeatherDisplay:10.37,2013-02-10 00:33:00,
2013-02-09 19:38:00,21.6,5.8,30.20,WNW,299,0.0,6.9,50,0.00,CLR,,39.72,WeatherDisplay:10.37,2013-02-10 00:38:00,
2013-02-09 19:44:00,21.4,5.6,30.21,North,350,6.5,11.5,50,0.00,CLR,,39.72,WeatherDisplay:10.37,2013-02-10 00:44:00,
2013-02-09 19:49:00,21.4,6.0,30.22,North,0,0.0,6.9,51,0.00,CLR,,39.72,WeatherDisplay:10.37,2013-02-10 00:49:00,
2013-02-09 19:54:00,21.3,6.0,30.22,NW,309,6.2,10.4,51,0.00,CLR,,39.72,WeatherDisplay:10.37,2013-02-10 00:54:00,
2013-02-09 19:59:00,21.1,5.8,30.22,North,359,4.6,8.1,51,0.00,CLR,,39.72,WeatherDisplay:10.37,2013-02-10 00:59:00,
2013-02-09 20:04:00,21.1,5.3,30.22,North,352,10.6,19.6,50,0.00,CLR,,39.72,WeatherDisplay:10.37,2013-02-10 01:04:00,
2013-02-09 20:09:00,21.1,5.3,30.23,NW,304,4.0,4.6,50,0.00,CLR,,39.72,WeatherDisplay:10.37,2013-02-10 01:09:00,
2013-02-09 20:14:00,20.8,5.5,30.23,NW,306,5.4,6.0,51,0.00,CLR,,39.72,WeatherDisplay:10.37,2013-02-10 01:14:00,
2013-02-09 20:20:00,20.8,5.1,30.23,NW,320,5.5,11.0,50,0.00,CLR,,39.72,WeatherDisplay:10.37,2013-02-10 01:20:00,
2013-02-09 20:25:00,20.8,5.1,30.23,North,359,5.6,9.2,50,0.00,CLR,,39.72,WeatherDisplay:10.37,2013-02-10 01:25:00,
2013-02-09 20:30:00,20.8,5.1,30.24,WNW,292,6.1,11.5,50,0.00,CLR,,39.72,WeatherDisplay:10.37,2013-02-10 01:30:00,
2013-02-09 20:35:00,20.8,4.6,30.24,NNW,343,6.4,11.5,49,0.00,CLR,,39.72,WeatherDisplay:10.37,2013-02-10 01:35:00,
2013-02-09 20:40:00,20.6,4.9,30.24,West,280,0.1,5.8,50,0.00,CLR,,39.72,WeatherDisplay:10.37,2013-02-10 01:40:00,
2013-02-09 20:46:00,20.3,4.6,30.25,SW,234,0.0,0.0,50,0.00,CLR,,39.72,WeatherDisplay:10.37,2013-02-10 01:46:00,
2013-02-09 20:51:00,20.2,4.5,30.25,North,0,0.0,0.0,50,0.00,CLR,,39.72,WeatherDisplay:10.37,2013-02-10 01:51:00,
2013-02-09 20:56:00,20.0,4.3,30.25,North,357,4.2,11.5,50,0.00,CLR,,39.72,WeatherDisplay:10.37,2013-02-10 01:56:00,
2013-02-09 21:01:00,20.2,4.5,30.26,North,359,0.0,12.7,50,0.00,CLR,,39.72,WeatherDisplay:10.37,2013-02-10 02:01:00,
2013-02-09 21:06:00,20.0,4.7,30.26,NE,38,1.3,5.8,51,0.00,CLR,,39.72,WeatherDisplay:10.37,2013-02-10 02:06:00,
2013-02-09 21:12:00,19.9,4.7,30.26,West,265,3.6,6.9,51,0.00,CLR,,39.72,WeatherDisplay:10.37,2013-02-10 02:12:00,
2013-02-09 21:17:00,19.9,4.7,30.26,NW,311,1.5,11.5,51,0.00,CLR,,39.72,WeatherDisplay:10.37,2013-02-10 02:17:00,
2013-02-09 21:22:00,19.9,4.7,30.26,North,357,5.8,9.2,51,0.00,CLR,,39.72,WeatherDisplay:10.37,2013-02-10 02:22:00,
2013-02-09 21:27:00,19.5,4.7,30.27,North,7,0.0,1.2,52,0.00,CLR,,39.72,WeatherDisplay:10.37,2013-02-10 02:27:00,
2013-02-09 21:32:00,19.5,4.7,30.27,NW,312,0.0,0.0,52,0.00,CLR,,39.72,WeatherDisplay:10.37,2013-02-10 02:32:00,
2013-02-09 21:38:00,19.4,5.0,30.27,NW,304,8.6,16.1,53,0.00,CLR,,39.72,WeatherDisplay:10.37,2013-02-10 02:38:00,
2013-02-09 21:43:00,19.2,4.8,30.28,North,6,0.1,1.2,53,0.00,CLR,,39.72,WeatherDisplay:10.37,2013-02-10 02:43:00,
2013-02-09 21:48:00,19.2,4.4,30.28,NW,319,3.0,6.9,52,0.00,CLR,,39.72,WeatherDisplay:10.37,2013-02-10 02:48:00,
2013-02-09 21:54:00,19.2,4.4,30.28,NE,41,0.0,0.0,52,0.00,CLR,,39.72,WeatherDisplay:10.37,2013-02-10 02:54:00,
2013-02-09 21:59:00,19.1,4.8,30.28,North,7,0.0,0.0,53,0.00,CLR,,39.72,WeatherDisplay:10.37,2013-02-10 02:59:00,
2013-02-09 22:04:00,18.8,4.5,30.28,North,10,6.8,14.0,53,0.00,CLR,,39.72,WeatherDisplay:10.37,2013-02-10 03:04:00,
2013-02-09 22:09:00,18.8,4.5,30.28,North,0,0.0,4.6,53,0.00,CLR,,39.72,WeatherDisplay:10.37,2013-02-10 03:09:00,
2013-02-09 22:14:00,18.8,4.9,30.28,North,0,0.0,1.2,54,0.00,CLR,,39.72,WeatherDisplay:10.37,2013-02-10 03:14:00,
2013-02-09 22:19:00,18.6,4.7,30.28,NNW,332,0.0,0.0,54,0.00,CLR,,39.72,WeatherDisplay:10.37,2013-02-10 03:19:00,
2013-02-09 22:24:00,18.4,4.9,30.28,North,3,0.0,4.6,55,0.00,CLR,,39.72,WeatherDisplay:10.37,2013-02-10 03:24:00,
2013-02-09 22:30:00,18.4,4.9,30.28,North,357,5.2,10.4,55,0.00,CLR,,39.72,WeatherDisplay:10.37,2013-02-10 03:30:00,
2013-02-09 22:35:00,18.3,4.8,30.29,NE,54,0.1,1.2,55,0.00,CLR,,39.72,WeatherDisplay:10.37,2013-02-10 03:35:00,
2013-02-09 22:40:00,18.1,5.0,30.29,ENE,66,1.8,5.8,56,0.00,CLR,,39.72,WeatherDisplay:10.37,2013-02-10 03:40:00,
2013-02-09 22:45:00,18.0,4.9,30.28,North,359,4.7,7.0,56,0.00,CLR,,39.72,WeatherDisplay:10.37,2013-02-10 03:45:00,
2013-02-09 22:50:00,18.0,4.9,30.29,North,10,0.0,0.0,56,0.00,CLR,,39.72,WeatherDisplay:10.37,2013-02-10 03:50:00,
2013-02-09 22:55:00,18.1,5.0,30.29,North,0,5.6,9.0,56,0.00,CLR,,39.72,WeatherDisplay:10.37,2013-02-10 03:55:00,
2013-02-09 23:00:00,18.1,5.0,30.30,North,1,6.1,11.5,56,0.00,CLR,,39.72,WeatherDisplay:10.37,2013-02-10 04:00:00,
2013-02-09 23:05:00,18.1,5.0,30.30,NNE,24,4.1,4.1,56,0.00,CLR,,39.72,WeatherDisplay:10.37,2013-02-10 04:05:00,
2013-02-09 23:11:00,18.0,4.9,30.30,North,0,6.0,8.1,56,0.00,CLR,,39.72,WeatherDisplay:10.37,2013-02-10 04:11:00,
2013-02-09 23:16:00,17.8,4.7,30.30,ENE,76,6.5,6.9,56,0.00,CLR,,39.72,WeatherDisplay:10.37,2013-02-10 04:16:00,
2013-02-09 23:21:00,17.7,4.6,30.30,North,0,3.3,4.6,56,0.00,CLR,,39.72,WeatherDisplay:10.37,2013-02-10 04:21:00,
2013-02-09 23:26:00,17.5,4.8,30.30,North,0,0.0,0.0,57,0.00,CLR,,39.72,WeatherDisplay:10.37,2013-02-10 04:26:00,
2013-02-09 23:31:00,17.3,5.0,30.31,North,0,0.0,0.0,58,0.00,CLR,,39.72,WeatherDisplay:10.37,2013-02-10 04:31:00,
2013-02-09 23:36:00,17.2,4.9,30.31,North,359,0.0,0.0,58,0.00,CLR,,39.72,WeatherDisplay:10.37,2013-02-10 04:36:00,
2013-02-09 23:41:00,17.2,4.9,30.31,North,352,6.0,9.2,58,0.00,CLR,,39.72,WeatherDisplay:10.37,2013-02-10 04:41:00,
2013-02-09 23:46:00,17.5,5.2,30.31,NNE,32,5.9,5.9,58,0.00,CLR,,39.72,WeatherDisplay:10.37,2013-02-10 04:46:00,
2013-02-09 23:51:00,17.5,5.2,30.31,North,359,0.0,1.2,58,0.00,CLR,,39.72,WeatherDisplay:10.37,2013-02-10 04:51:00,
2013-02-09 23:56:00,17.3,5.0,30.31,North,359,5.9,8.1,58,0.00,CLR,,39.72,WeatherDisplay:10.37,2013-02-10 04:56:00,